sensor_id;sensor_type;location;lat;lon;timestamp;P1;durP1;ratioP1;P2;durP2;ratioP2
73747;SDS011;62056;52.130;5.428;2023-04-24T00:02:18;4.55;;;2.95;;
73747;SDS011;62056;52.130;5.428;2023-04-24T00:04:45;6.13;;;4.10;;
73747;SDS011;62056;52.130;5.428;2023-04-24T00:07:12;2.58;;;1.83;;
73747;SDS011;62056;52.130;5.428;2023-04-24T00:09:39;2.38;;;1.20;;
73747;SDS011;62056;52.130;5.428;2023-04-24T00:12:06;1.95;;;1.13;;
73747;SDS011;62056;52.130;5.428;2023-04-24T00:14:33;2.40;;;0.88;;
73747;SDS011;62056;52.130;5.428;2023-04-24T00:17:01;0.90;;;0.70;;
73747;SDS011;62056;52.130;5.428;2023-04-24T00:19:31;1.20;;;0.90;;
73747;SDS011;62056;52.130;5.428;2023-04-24T00:21:58;1.70;;;1.08;;
73747;SDS011;62056;52.130;5.428;2023-04-24T00:24:24;3.17;;;2.88;;
73747;SDS011;62056;52.130;5.428;2023-04-24T00:26:51;1.80;;;1.10;;
73747;SDS011;62056;52.130;5.428;2023-04-24T00:29:17;2.63;;;1.30;;
73747;SDS011;62056;52.130;5.428;2023-04-24T00:31:44;1.00;;;0.90;;
73747;SDS011;62056;52.130;5.428;2023-04-24T00:34:11;1.67;;;0.73;;
73747;SDS011;62056;52.130;5.428;2023-04-24T00:36:38;1.27;;;0.80;;
73747;SDS011;62056;52.130;5.428;2023-04-24T00:39:05;0.95;;;0.65;;
73747;SDS011;62056;52.130;5.428;2023-04-24T00:41:35;1.30;;;0.80;;
73747;SDS011;62056;52.130;5.428;2023-04-24T00:44:01;1.92;;;0.80;;
73747;SDS011;62056;52.130;5.428;2023-04-24T00:46:28;1.20;;;0.70;;
73747;SDS011;62056;52.130;5.428;2023-04-24T00:48:56;3.03;;;0.88;;
73747;SDS011;62056;52.130;5.428;2023-04-24T00:51:22;1.35;;;0.98;;
73747;SDS011;62056;52.130;5.428;2023-04-24T00:53:50;1.00;;;0.73;;
73747;SDS011;62056;52.130;5.428;2023-04-24T00:56:18;9.02;;;3.47;;
73747;SDS011;62056;52.130;5.428;2023-04-24T00:58:45;1.80;;;1.38;;
73747;SDS011;62056;52.130;5.428;2023-04-24T01:01:11;4.80;;;2.25;;
73747;SDS011;62056;52.130;5.428;2023-04-24T01:03:39;6.15;;;4.25;;
73747;SDS011;62056;52.130;5.428;2023-04-24T01:06:07;8.07;;;5.80;;
73747;SDS011;62056;52.130;5.428;2023-04-24T01:08:36;4.78;;;3.55;;
73747;SDS011;62056;52.130;5.428;2023-04-24T01:11:04;2.05;;;1.80;;
73747;SDS011;62056;52.130;5.428;2023-04-24T01:13:32;9.68;;;6.03;;
73747;SDS011;62056;52.130;5.428;2023-04-24T01:16:00;4.20;;;3.78;;
73747;SDS011;62056;52.130;5.428;2023-04-24T01:18:27;12.17;;;6.77;;
73747;SDS011;62056;52.130;5.428;2023-04-24T01:20:56;5.63;;;5.13;;
73747;SDS011;62056;52.130;5.428;2023-04-24T01:23:24;4.50;;;4.13;;
73747;SDS011;62056;52.130;5.428;2023-04-24T01:25:52;7.68;;;6.28;;
73747;SDS011;62056;52.130;5.428;2023-04-24T01:28:19;3.13;;;2.83;;
73747;SDS011;62056;52.130;5.428;2023-04-24T01:30:46;4.07;;;2.63;;
73747;SDS011;62056;52.130;5.428;2023-04-24T01:33:13;2.55;;;2.35;;
73747;SDS011;62056;52.130;5.428;2023-04-24T01:35:39;2.75;;;1.98;;
73747;SDS011;62056;52.130;5.428;2023-04-24T01:38:06;2.05;;;1.85;;
73747;SDS011;62056;52.130;5.428;2023-04-24T01:40:33;2.38;;;2.00;;
73747;SDS011;62056;52.130;5.428;2023-04-24T01:43:00;1.73;;;1.63;;
73747;SDS011;62056;52.130;5.428;2023-04-24T01:45:26;4.00;;;1.77;;
73747;SDS011;62056;52.130;5.428;2023-04-24T01:47:53;2.83;;;2.58;;
73747;SDS011;62056;52.130;5.428;2023-04-24T01:50:20;2.22;;;2.00;;
73747;SDS011;62056;52.130;5.428;2023-04-24T01:52:47;2.40;;;2.20;;
73747;SDS011;62056;52.130;5.428;2023-04-24T01:55:16;2.17;;;2.07;;
73747;SDS011;62056;52.130;5.428;2023-04-24T01:57:43;1.90;;;1.20;;
73747;SDS011;62056;52.130;5.428;2023-04-24T02:00:10;2.50;;;2.28;;
73747;SDS011;62056;52.130;5.428;2023-04-24T02:02:39;3.33;;;2.40;;
73747;SDS011;62056;52.130;5.428;2023-04-24T02:05:08;2.95;;;2.65;;
73747;SDS011;62056;52.130;5.428;2023-04-24T02:07:36;3.63;;;3.00;;
73747;SDS011;62056;52.130;5.428;2023-04-24T02:10:02;1.98;;;1.88;;
73747;SDS011;62056;52.130;5.428;2023-04-24T02:12:30;4.75;;;4.25;;
73747;SDS011;62056;52.130;5.428;2023-04-24T02:14:56;2.35;;;2.15;;
73747;SDS011;62056;52.130;5.428;2023-04-24T02:17:24;4.03;;;3.63;;
73747;SDS011;62056;52.130;5.428;2023-04-24T02:19:51;3.03;;;2.73;;
73747;SDS011;62056;52.130;5.428;2023-04-24T02:22:17;2.50;;;2.30;;
73747;SDS011;62056;52.130;5.428;2023-04-24T02:24:44;7.03;;;3.90;;
73747;SDS011;62056;52.130;5.428;2023-04-24T02:27:11;4.88;;;4.00;;
73747;SDS011;62056;52.130;5.428;2023-04-24T02:29:37;5.80;;;3.08;;
73747;SDS011;62056;52.130;5.428;2023-04-24T02:32:04;2.87;;;1.80;;
73747;SDS011;62056;52.130;5.428;2023-04-24T02:34:31;2.00;;;1.80;;
73747;SDS011;62056;52.130;5.428;2023-04-24T02:36:57;4.53;;;4.13;;
73747;SDS011;62056;52.130;5.428;2023-04-24T02:39:24;2.03;;;1.83;;
73747;SDS011;62056;52.130;5.428;2023-04-24T02:41:51;1.80;;;1.65;;
73747;SDS011;62056;52.130;5.428;2023-04-24T02:44:17;2.20;;;2.00;;
73747;SDS011;62056;52.130;5.428;2023-04-24T02:46:44;9.90;;;7.68;;
73747;SDS011;62056;52.130;5.428;2023-04-24T02:49:10;5.03;;;4.63;;
73747;SDS011;62056;52.130;5.428;2023-04-24T02:51:38;3.40;;;2.17;;
73747;SDS011;62056;52.130;5.428;2023-04-24T02:54:07;2.75;;;2.20;;
73747;SDS011;62056;52.130;5.428;2023-04-24T02:56:36;4.10;;;2.50;;
73747;SDS011;62056;52.130;5.428;2023-04-24T02:59:02;2.50;;;2.30;;
73747;SDS011;62056;52.130;5.428;2023-04-24T03:01:29;3.03;;;2.83;;
73747;SDS011;62056;52.130;5.428;2023-04-24T03:03:56;2.88;;;2.67;;
73747;SDS011;62056;52.130;5.428;2023-04-24T03:06:24;2.20;;;1.98;;
73747;SDS011;62056;52.130;5.428;2023-04-24T03:08:53;2.27;;;2.00;;
73747;SDS011;62056;52.130;5.428;2023-04-24T03:11:20;2.40;;;1.80;;
73747;SDS011;62056;52.130;5.428;2023-04-24T03:13:47;2.45;;;2.00;;
73747;SDS011;62056;52.130;5.428;2023-04-24T03:16:14;2.30;;;2.08;;
73747;SDS011;62056;52.130;5.428;2023-04-24T03:18:41;4.22;;;3.80;;
73747;SDS011;62056;52.130;5.428;2023-04-24T03:21:07;4.63;;;4.00;;
73747;SDS011;62056;52.130;5.428;2023-04-24T03:23:34;4.85;;;2.55;;
73747;SDS011;62056;52.130;5.428;2023-04-24T03:26:01;8.15;;;4.10;;
73747;SDS011;62056;52.130;5.428;2023-04-24T03:28:28;6.47;;;2.28;;
73747;SDS011;62056;52.130;5.428;2023-04-24T03:30:55;2.03;;;1.90;;
73747;SDS011;62056;52.130;5.428;2023-04-24T03:33:22;3.93;;;2.07;;
73747;SDS011;62056;52.130;5.428;2023-04-24T03:35:48;3.03;;;1.80;;
73747;SDS011;62056;52.130;5.428;2023-04-24T03:38:15;2.95;;;2.00;;
73747;SDS011;62056;52.130;5.428;2023-04-24T03:40:41;2.72;;;1.73;;
73747;SDS011;62056;52.130;5.428;2023-04-24T03:43:08;2.10;;;1.90;;
73747;SDS011;62056;52.130;5.428;2023-04-24T03:45:34;3.53;;;2.43;;
73747;SDS011;62056;52.130;5.428;2023-04-24T03:48:01;1.77;;;1.67;;
73747;SDS011;62056;52.130;5.428;2023-04-24T03:50:28;2.85;;;2.20;;
73747;SDS011;62056;52.130;5.428;2023-04-24T03:52:55;2.25;;;1.77;;
73747;SDS011;62056;52.130;5.428;2023-04-24T03:55:22;1.85;;;1.70;;
73747;SDS011;62056;52.130;5.428;2023-04-24T03:57:48;3.10;;;2.27;;
73747;SDS011;62056;52.130;5.428;2023-04-24T04:00:15;2.08;;;1.88;;
73747;SDS011;62056;52.130;5.428;2023-04-24T04:02:41;3.55;;;2.10;;
73747;SDS011;62056;52.130;5.428;2023-04-24T04:05:08;8.60;;;2.13;;
73747;SDS011;62056;52.130;5.428;2023-04-24T04:07:35;1.77;;;1.58;;
73747;SDS011;62056;52.130;5.428;2023-04-24T04:10:02;2.37;;;1.27;;
73747;SDS011;62056;52.130;5.428;2023-04-24T04:12:29;1.92;;;1.30;;
73747;SDS011;62056;52.130;5.428;2023-04-24T04:14:56;1.58;;;1.20;;
73747;SDS011;62056;52.130;5.428;2023-04-24T04:17:23;1.95;;;1.63;;
73747;SDS011;62056;52.130;5.428;2023-04-24T04:19:49;1.40;;;1.02;;
73747;SDS011;62056;52.130;5.428;2023-04-24T04:22:16;1.63;;;1.00;;
73747;SDS011;62056;52.130;5.428;2023-04-24T04:24:43;2.10;;;1.67;;
73747;SDS011;62056;52.130;5.428;2023-04-24T04:27:10;2.95;;;1.85;;
73747;SDS011;62056;52.130;5.428;2023-04-24T04:29:37;2.38;;;1.88;;
73747;SDS011;62056;52.130;5.428;2023-04-24T04:32:03;2.60;;;2.30;;
73747;SDS011;62056;52.130;5.428;2023-04-24T04:34:30;2.63;;;2.13;;
73747;SDS011;62056;52.130;5.428;2023-04-24T04:36:57;6.05;;;2.47;;
73747;SDS011;62056;52.130;5.428;2023-04-24T04:39:27;2.47;;;2.13;;
73747;SDS011;62056;52.130;5.428;2023-04-24T04:41:54;2.03;;;1.75;;
73747;SDS011;62056;52.130;5.428;2023-04-24T04:44:21;3.35;;;3.05;;
73747;SDS011;62056;52.130;5.428;2023-04-24T04:46:48;5.63;;;4.90;;
73747;SDS011;62056;52.130;5.428;2023-04-24T04:49:15;3.72;;;3.28;;
73747;SDS011;62056;52.130;5.428;2023-04-24T04:51:43;4.85;;;4.32;;
73747;SDS011;62056;52.130;5.428;2023-04-24T04:54:09;3.78;;;3.42;;
73747;SDS011;62056;52.130;5.428;2023-04-24T04:56:36;3.97;;;3.67;;
73747;SDS011;62056;52.130;5.428;2023-04-24T04:59:02;6.20;;;3.33;;
73747;SDS011;62056;52.130;5.428;2023-04-24T05:01:29;3.72;;;3.33;;
73747;SDS011;62056;52.130;5.428;2023-04-24T05:03:56;4.55;;;4.13;;
73747;SDS011;62056;52.130;5.428;2023-04-24T05:06:23;3.45;;;3.10;;
73747;SDS011;62056;52.130;5.428;2023-04-24T05:08:50;2.60;;;2.40;;
73747;SDS011;62056;52.130;5.428;2023-04-24T05:11:18;3.63;;;2.10;;
73747;SDS011;62056;52.130;5.428;2023-04-24T05:13:45;2.20;;;1.83;;
73747;SDS011;62056;52.130;5.428;2023-04-24T05:16:12;2.67;;;2.38;;
73747;SDS011;62056;52.130;5.428;2023-04-24T05:18:38;2.40;;;2.20;;
73747;SDS011;62056;52.130;5.428;2023-04-24T05:21:05;4.07;;;3.45;;
73747;SDS011;62056;52.130;5.428;2023-04-24T05:23:32;3.50;;;3.13;;
73747;SDS011;62056;52.130;5.428;2023-04-24T05:25:58;2.67;;;2.08;;
73747;SDS011;62056;52.130;5.428;2023-04-24T05:28:25;2.25;;;1.90;;
73747;SDS011;62056;52.130;5.428;2023-04-24T05:30:54;2.03;;;1.73;;
73747;SDS011;62056;52.130;5.428;2023-04-24T05:33:22;4.65;;;2.80;;
73747;SDS011;62056;52.130;5.428;2023-04-24T05:35:49;2.57;;;1.73;;
73747;SDS011;62056;52.130;5.428;2023-04-24T05:38:15;1.83;;;1.27;;
73747;SDS011;62056;52.130;5.428;2023-04-24T05:40:45;4.32;;;2.17;;
73747;SDS011;62056;52.130;5.428;2023-04-24T05:43:12;3.25;;;2.17;;
73747;SDS011;62056;52.130;5.428;2023-04-24T05:45:39;2.30;;;1.85;;
73747;SDS011;62056;52.130;5.428;2023-04-24T05:48:06;2.10;;;1.27;;
73747;SDS011;62056;52.130;5.428;2023-04-24T05:50:33;2.67;;;2.10;;
73747;SDS011;62056;52.130;5.428;2023-04-24T05:53:02;2.88;;;2.10;;
73747;SDS011;62056;52.130;5.428;2023-04-24T05:55:29;2.55;;;2.00;;
73747;SDS011;62056;52.130;5.428;2023-04-24T05:57:57;2.10;;;1.65;;
73747;SDS011;62056;52.130;5.428;2023-04-24T06:00:24;2.80;;;1.70;;
73747;SDS011;62056;52.130;5.428;2023-04-24T06:02:51;3.80;;;1.70;;
73747;SDS011;62056;52.130;5.428;2023-04-24T06:05:19;2.05;;;1.80;;
73747;SDS011;62056;52.130;5.428;2023-04-24T06:07:46;1.90;;;1.40;;
73747;SDS011;62056;52.130;5.428;2023-04-24T06:10:14;1.65;;;0.93;;
73747;SDS011;62056;52.130;5.428;2023-04-24T06:12:41;1.50;;;0.97;;
73747;SDS011;62056;52.130;5.428;2023-04-24T06:15:07;1.60;;;1.08;;
73747;SDS011;62056;52.130;5.428;2023-04-24T06:17:34;1.45;;;0.90;;
73747;SDS011;62056;52.130;5.428;2023-04-24T06:20:01;1.85;;;0.70;;
73747;SDS011;62056;52.130;5.428;2023-04-24T06:22:30;1.30;;;0.80;;
73747;SDS011;62056;52.130;5.428;2023-04-24T06:24:57;1.40;;;0.80;;
73747;SDS011;62056;52.130;5.428;2023-04-24T06:27:24;2.13;;;0.30;;
73747;SDS011;62056;52.130;5.428;2023-04-24T06:29:50;1.38;;;0.77;;
73747;SDS011;62056;52.130;5.428;2023-04-24T06:32:23;0.80;;;0.38;;
73747;SDS011;62056;52.130;5.428;2023-04-24T06:34:51;1.85;;;0.40;;
73747;SDS011;62056;52.130;5.428;2023-04-24T06:37:19;0.73;;;0.30;;
73747;SDS011;62056;52.130;5.428;2023-04-24T06:39:46;1.30;;;0.40;;
73747;SDS011;62056;52.130;5.428;2023-04-24T06:42:13;2.60;;;0.40;;
73747;SDS011;62056;52.130;5.428;2023-04-24T06:44:40;0.80;;;0.30;;
73747;SDS011;62056;52.130;5.428;2023-04-24T06:47:07;1.65;;;1.20;;
73747;SDS011;62056;52.130;5.428;2023-04-24T06:49:38;2.13;;;1.93;;
73747;SDS011;62056;52.130;5.428;2023-04-24T06:52:04;2.45;;;1.70;;
73747;SDS011;62056;52.130;5.428;2023-04-24T06:54:31;4.78;;;2.45;;
73747;SDS011;62056;52.130;5.428;2023-04-24T06:56:59;3.08;;;2.35;;
73747;SDS011;62056;52.130;5.428;2023-04-24T06:59:28;3.72;;;2.65;;
73747;SDS011;62056;52.130;5.428;2023-04-24T07:01:56;5.03;;;3.10;;
73747;SDS011;62056;52.130;5.428;2023-04-24T07:04:23;4.50;;;3.45;;
73747;SDS011;62056;52.130;5.428;2023-04-24T07:06:52;5.45;;;4.60;;
73747;SDS011;62056;52.130;5.428;2023-04-24T07:09:22;5.53;;;4.47;;
73747;SDS011;62056;52.130;5.428;2023-04-24T07:11:50;5.90;;;3.88;;
73747;SDS011;62056;52.130;5.428;2023-04-24T07:14:17;7.23;;;3.50;;
73747;SDS011;62056;52.130;5.428;2023-04-24T07:16:44;5.93;;;3.78;;
73747;SDS011;62056;52.130;5.428;2023-04-24T07:19:12;5.78;;;3.40;;
73747;SDS011;62056;52.130;5.428;2023-04-24T07:21:39;5.18;;;3.40;;
73747;SDS011;62056;52.130;5.428;2023-04-24T07:24:07;5.03;;;3.25;;
73747;SDS011;62056;52.130;5.428;2023-04-24T07:26:37;8.60;;;3.80;;
73747;SDS011;62056;52.130;5.428;2023-04-24T07:29:06;4.65;;;3.60;;
73747;SDS011;62056;52.130;5.428;2023-04-24T07:31:33;3.33;;;2.72;;
73747;SDS011;62056;52.130;5.428;2023-04-24T07:34:00;8.18;;;3.80;;
73747;SDS011;62056;52.130;5.428;2023-04-24T07:36:27;8.77;;;3.17;;
73747;SDS011;62056;52.130;5.428;2023-04-24T07:38:54;6.23;;;3.20;;
73747;SDS011;62056;52.130;5.428;2023-04-24T07:41:22;6.95;;;3.33;;
73747;SDS011;62056;52.130;5.428;2023-04-24T07:43:50;7.07;;;3.30;;
73747;SDS011;62056;52.130;5.428;2023-04-24T07:46:20;8.20;;;3.60;;
73747;SDS011;62056;52.130;5.428;2023-04-24T07:48:47;9.48;;;3.53;;
73747;SDS011;62056;52.130;5.428;2023-04-24T07:51:27;7.83;;;3.50;;
73747;SDS011;62056;52.130;5.428;2023-04-24T07:53:57;7.47;;;3.35;;
73747;SDS011;62056;52.130;5.428;2023-04-24T07:56:24;5.78;;;3.95;;
73747;SDS011;62056;52.130;5.428;2023-04-24T07:58:53;5.57;;;3.30;;
73747;SDS011;62056;52.130;5.428;2023-04-24T08:01:19;7.20;;;3.25;;
73747;SDS011;62056;52.130;5.428;2023-04-24T08:04:14;7.20;;;3.33;;
73747;SDS011;62056;52.130;5.428;2023-04-24T08:07:11;7.72;;;3.65;;
73747;SDS011;62056;52.130;5.428;2023-04-24T08:09:39;8.25;;;2.90;;
73747;SDS011;62056;52.130;5.428;2023-04-24T08:12:06;7.32;;;3.58;;
73747;SDS011;62056;52.130;5.428;2023-04-24T08:15:00;9.57;;;3.33;;
73747;SDS011;62056;52.130;5.428;2023-04-24T08:17:32;4.33;;;2.13;;
73747;SDS011;62056;52.130;5.428;2023-04-24T08:19:58;5.18;;;2.35;;
73747;SDS011;62056;52.130;5.428;2023-04-24T08:22:28;6.43;;;2.40;;
73747;SDS011;62056;52.130;5.428;2023-04-24T08:24:54;6.13;;;2.53;;
73747;SDS011;62056;52.130;5.428;2023-04-24T08:27:23;3.03;;;2.15;;
73747;SDS011;62056;52.130;5.428;2023-04-24T08:29:50;7.10;;;2.43;;
73747;SDS011;62056;52.130;5.428;2023-04-24T08:32:16;5.10;;;1.30;;
73747;SDS011;62056;52.130;5.428;2023-04-24T08:34:43;4.32;;;1.27;;
73747;SDS011;62056;52.130;5.428;2023-04-24T08:37:12;6.25;;;1.50;;
73747;SDS011;62056;52.130;5.428;2023-04-24T08:39:39;8.77;;;1.45;;
73747;SDS011;62056;52.130;5.428;2023-04-24T08:42:07;4.30;;;1.80;;
73747;SDS011;62056;52.130;5.428;2023-04-24T08:44:35;7.57;;;1.65;;
73747;SDS011;62056;52.130;5.428;2023-04-24T08:47:02;10.48;;;1.50;;
73747;SDS011;62056;52.130;5.428;2023-04-24T08:49:29;7.80;;;1.60;;
73747;SDS011;62056;52.130;5.428;2023-04-24T08:51:57;6.45;;;1.45;;
73747;SDS011;62056;52.130;5.428;2023-04-24T08:54:53;6.20;;;1.37;;
73747;SDS011;62056;52.130;5.428;2023-04-24T08:57:20;9.77;;;1.20;;
73747;SDS011;62056;52.130;5.428;2023-04-24T08:59:48;5.15;;;1.30;;
73747;SDS011;62056;52.130;5.428;2023-04-24T09:02:15;6.72;;;0.98;;
73747;SDS011;62056;52.130;5.428;2023-04-24T09:04:43;2.60;;;0.95;;
73747;SDS011;62056;52.130;5.428;2023-04-24T09:07:12;7.23;;;0.87;;
73747;SDS011;62056;52.130;5.428;2023-04-24T09:09:40;3.90;;;0.93;;
73747;SDS011;62056;52.130;5.428;2023-04-24T09:12:26;10.00;;;1.25;;
73747;SDS011;62056;52.130;5.428;2023-04-24T09:14:56;9.18;;;1.10;;
73747;SDS011;62056;52.130;5.428;2023-04-24T09:17:30;7.53;;;0.90;;
73747;SDS011;62056;52.130;5.428;2023-04-24T09:19:57;4.63;;;0.80;;
73747;SDS011;62056;52.130;5.428;2023-04-24T09:22:25;9.23;;;1.33;;
73747;SDS011;62056;52.130;5.428;2023-04-24T09:24:59;8.15;;;1.90;;
73747;SDS011;62056;52.130;5.428;2023-04-24T09:27:33;5.40;;;1.10;;
73747;SDS011;62056;52.130;5.428;2023-04-24T09:30:00;4.18;;;1.73;;
73747;SDS011;62056;52.130;5.428;2023-04-24T09:32:28;7.93;;;0.90;;
73747;SDS011;62056;52.130;5.428;2023-04-24T09:37:38;5.78;;;1.05;;
73747;SDS011;62056;52.130;5.428;2023-04-24T09:40:15;4.55;;;0.75;;
73747;SDS011;62056;52.130;5.428;2023-04-24T09:42:45;4.35;;;1.13;;
73747;SDS011;62056;52.130;5.428;2023-04-24T09:45:17;7.53;;;1.27;;
73747;SDS011;62056;52.130;5.428;2023-04-24T09:47:44;3.80;;;0.88;;
73747;SDS011;62056;52.130;5.428;2023-04-24T09:50:14;4.43;;;1.55;;
73747;SDS011;62056;52.130;5.428;2023-04-24T09:52:45;4.03;;;0.90;;
73747;SDS011;62056;52.130;5.428;2023-04-24T09:55:24;2.53;;;1.00;;
73747;SDS011;62056;52.130;5.428;2023-04-24T09:57:52;3.77;;;0.70;;
73747;SDS011;62056;52.130;5.428;2023-04-24T10:00:25;3.05;;;1.02;;
73747;SDS011;62056;52.130;5.428;2023-04-24T10:02:59;4.68;;;0.80;;
73747;SDS011;62056;52.130;5.428;2023-04-24T10:05:54;3.45;;;0.90;;
73747;SDS011;62056;52.130;5.428;2023-04-24T10:08:53;4.85;;;1.02;;
73747;SDS011;62056;52.130;5.428;2023-04-24T10:11:19;9.03;;;0.80;;
73747;SDS011;62056;52.130;5.428;2023-04-24T10:13:46;2.50;;;0.60;;
73747;SDS011;62056;52.130;5.428;2023-04-24T10:16:13;6.18;;;1.00;;
73747;SDS011;62056;52.130;5.428;2023-04-24T10:18:41;2.90;;;0.68;;
73747;SDS011;62056;52.130;5.428;2023-04-24T10:21:08;6.43;;;0.90;;
73747;SDS011;62056;52.130;5.428;2023-04-24T10:24:03;3.37;;;0.60;;
73747;SDS011;62056;52.130;5.428;2023-04-24T10:26:31;5.40;;;1.10;;
73747;SDS011;62056;52.130;5.428;2023-04-24T10:28:58;3.83;;;0.65;;
73747;SDS011;62056;52.130;5.428;2023-04-24T10:31:25;4.38;;;0.93;;
73747;SDS011;62056;52.130;5.428;2023-04-24T10:33:53;3.10;;;0.70;;
73747;SDS011;62056;52.130;5.428;2023-04-24T10:36:22;1.27;;;0.50;;
73747;SDS011;62056;52.130;5.428;2023-04-24T10:38:52;2.65;;;0.40;;
73747;SDS011;62056;52.130;5.428;2023-04-24T10:41:22;1.95;;;0.47;;
73747;SDS011;62056;52.130;5.428;2023-04-24T10:44:09;2.60;;;0.52;;
73747;SDS011;62056;52.130;5.428;2023-04-24T10:46:38;2.33;;;0.32;;
73747;SDS011;62056;52.130;5.428;2023-04-24T10:49:06;0.93;;;0.37;;
73747;SDS011;62056;52.130;5.428;2023-04-24T10:51:48;1.63;;;0.30;;
73747;SDS011;62056;52.130;5.428;2023-04-24T10:54:26;5.03;;;0.63;;
73747;SDS011;62056;52.130;5.428;2023-04-24T10:57:28;2.65;;;0.50;;
73747;SDS011;62056;52.130;5.428;2023-04-24T11:02:45;1.23;;;0.30;;
73747;SDS011;62056;52.130;5.428;2023-04-24T11:05:19;2.05;;;0.40;;
73747;SDS011;62056;52.130;5.428;2023-04-24T11:10:46;4.55;;;0.50;;
73747;SDS011;62056;52.130;5.428;2023-04-24T11:13:23;2.45;;;0.40;;
73747;SDS011;62056;52.130;5.428;2023-04-24T11:18:49;0.77;;;0.60;;
73747;SDS011;62056;52.130;5.428;2023-04-24T11:21:20;1.73;;;0.40;;
73747;SDS011;62056;52.130;5.428;2023-04-24T11:23:48;3.03;;;0.50;;
73747;SDS011;62056;52.130;5.428;2023-04-24T11:26:17;5.45;;;0.40;;
73747;SDS011;62056;52.130;5.428;2023-04-24T11:28:47;2.20;;;0.27;;
73747;SDS011;62056;52.130;5.428;2023-04-24T11:31:34;4.78;;;0.40;;
73747;SDS011;62056;52.130;5.428;2023-04-24T11:34:12;1.90;;;0.30;;
73747;SDS011;62056;52.130;5.428;2023-04-24T11:36:44;2.42;;;0.40;;
73747;SDS011;62056;52.130;5.428;2023-04-24T11:39:13;1.67;;;0.50;;
73747;SDS011;62056;52.130;5.428;2023-04-24T11:41:41;1.47;;;0.40;;
73747;SDS011;62056;52.130;5.428;2023-04-24T11:44:08;1.40;;;0.40;;
73747;SDS011;62056;52.130;5.428;2023-04-24T11:46:36;3.35;;;0.82;;
73747;SDS011;62056;52.130;5.428;2023-04-24T11:49:04;3.88;;;0.40;;
73747;SDS011;62056;52.130;5.428;2023-04-24T11:51:31;1.80;;;0.40;;
73747;SDS011;62056;52.130;5.428;2023-04-24T11:54:16;2.50;;;0.27;;
73747;SDS011;62056;52.130;5.428;2023-04-24T11:56:46;1.20;;;0.45;;
73747;SDS011;62056;52.130;5.428;2023-04-24T11:59:14;1.27;;;0.28;;
73747;SDS011;62056;52.130;5.428;2023-04-24T12:01:47;1.85;;;0.30;;
73747;SDS011;62056;52.130;5.428;2023-04-24T12:04:15;0.68;;;0.25;;
73747;SDS011;62056;52.130;5.428;2023-04-24T12:07:01;1.50;;;0.30;;
73747;SDS011;62056;52.130;5.428;2023-04-24T12:09:29;2.08;;;0.40;;
73747;SDS011;62056;52.130;5.428;2023-04-24T12:12:09;1.13;;;0.30;;
73747;SDS011;62056;52.130;5.428;2023-04-24T12:14:51;1.73;;;0.30;;
73747;SDS011;62056;52.130;5.428;2023-04-24T12:17:24;1.27;;;0.20;;
73747;SDS011;62056;52.130;5.428;2023-04-24T12:19:58;1.47;;;0.27;;
73747;SDS011;62056;52.130;5.428;2023-04-24T12:22:42;1.92;;;0.30;;
73747;SDS011;62056;52.130;5.428;2023-04-24T12:25:15;1.45;;;0.60;;
73747;SDS011;62056;52.130;5.428;2023-04-24T12:27:43;1.45;;;0.40;;
73747;SDS011;62056;52.130;5.428;2023-04-24T12:30:13;0.98;;;0.32;;
73747;SDS011;62056;52.130;5.428;2023-04-24T12:32:45;1.83;;;0.50;;
73747;SDS011;62056;52.130;5.428;2023-04-24T12:35:13;8.73;;;0.70;;
73747;SDS011;62056;52.130;5.428;2023-04-24T12:37:46;1.80;;;0.60;;
73747;SDS011;62056;52.130;5.428;2023-04-24T12:40:13;2.53;;;0.43;;
73747;SDS011;62056;52.130;5.428;2023-04-24T12:42:42;4.95;;;0.60;;
73747;SDS011;62056;52.130;5.428;2023-04-24T12:45:10;3.13;;;0.40;;
73747;SDS011;62056;52.130;5.428;2023-04-24T12:47:38;0.93;;;0.30;;
73747;SDS011;62056;52.130;5.428;2023-04-24T12:50:08;5.00;;;0.60;;
73747;SDS011;62056;52.130;5.428;2023-04-24T12:52:36;2.80;;;0.50;;
73747;SDS011;62056;52.130;5.428;2023-04-24T12:55:03;2.97;;;0.50;;
73747;SDS011;62056;52.130;5.428;2023-04-24T12:57:32;4.10;;;1.03;;
73747;SDS011;62056;52.130;5.428;2023-04-24T12:59:59;5.57;;;0.85;;
73747;SDS011;62056;52.130;5.428;2023-04-24T13:02:27;3.63;;;1.10;;
73747;SDS011;62056;52.130;5.428;2023-04-24T13:04:56;11.02;;;0.85;;
73747;SDS011;62056;52.130;5.428;2023-04-24T13:07:23;3.72;;;0.52;;
73747;SDS011;62056;52.130;5.428;2023-04-24T13:09:50;4.23;;;0.60;;
73747;SDS011;62056;52.130;5.428;2023-04-24T13:12:17;10.50;;;0.77;;
73747;SDS011;62056;52.130;5.428;2023-04-24T13:14:45;3.00;;;0.60;;
73747;SDS011;62056;52.130;5.428;2023-04-24T13:17:12;5.90;;;1.38;;
73747;SDS011;62056;52.130;5.428;2023-04-24T13:19:40;4.63;;;0.95;;
73747;SDS011;62056;52.130;5.428;2023-04-24T13:22:09;4.60;;;0.80;;
73747;SDS011;62056;52.130;5.428;2023-04-24T13:24:37;4.20;;;0.73;;
73747;SDS011;62056;52.130;5.428;2023-04-24T13:27:07;5.35;;;1.13;;
73747;SDS011;62056;52.130;5.428;2023-04-24T13:29:34;6.00;;;0.82;;
73747;SDS011;62056;52.130;5.428;2023-04-24T13:32:01;3.35;;;1.15;;
73747;SDS011;62056;52.130;5.428;2023-04-24T13:34:28;4.13;;;0.93;;
73747;SDS011;62056;52.130;5.428;2023-04-24T13:36:56;6.57;;;1.00;;
73747;SDS011;62056;52.130;5.428;2023-04-24T13:39:24;6.03;;;1.90;;
73747;SDS011;62056;52.130;5.428;2023-04-24T13:41:52;7.88;;;1.02;;
73747;SDS011;62056;52.130;5.428;2023-04-24T13:44:20;4.60;;;0.98;;
73747;SDS011;62056;52.130;5.428;2023-04-24T13:46:49;4.70;;;0.80;;
73747;SDS011;62056;52.130;5.428;2023-04-24T13:49:23;4.90;;;0.85;;
73747;SDS011;62056;52.130;5.428;2023-04-24T13:51:52;3.50;;;0.75;;
73747;SDS011;62056;52.130;5.428;2023-04-24T13:54:20;6.53;;;1.00;;
73747;SDS011;62056;52.130;5.428;2023-04-24T13:56:48;5.05;;;0.85;;
73747;SDS011;62056;52.130;5.428;2023-04-24T13:59:15;8.73;;;1.20;;
73747;SDS011;62056;52.130;5.428;2023-04-24T14:01:42;4.60;;;0.98;;
73747;SDS011;62056;52.130;5.428;2023-04-24T14:04:09;3.22;;;1.08;;
73747;SDS011;62056;52.130;5.428;2023-04-24T14:06:36;4.50;;;0.95;;
73747;SDS011;62056;52.130;5.428;2023-04-24T14:09:02;6.50;;;1.60;;
73747;SDS011;62056;52.130;5.428;2023-04-24T14:11:29;4.90;;;0.90;;
73747;SDS011;62056;52.130;5.428;2023-04-24T14:13:56;5.28;;;0.95;;
73747;SDS011;62056;52.130;5.428;2023-04-24T14:16:22;5.20;;;1.33;;
73747;SDS011;62056;52.130;5.428;2023-04-24T14:18:49;2.05;;;0.93;;
73747;SDS011;62056;52.130;5.428;2023-04-24T14:21:16;2.95;;;0.93;;
73747;SDS011;62056;52.130;5.428;2023-04-24T14:23:43;4.47;;;1.03;;
73747;SDS011;62056;52.130;5.428;2023-04-24T14:26:10;2.50;;;1.00;;
73747;SDS011;62056;52.130;5.428;2023-04-24T14:28:37;5.80;;;1.40;;
73747;SDS011;62056;52.130;5.428;2023-04-24T14:31:04;1.95;;;1.17;;
73747;SDS011;62056;52.130;5.428;2023-04-24T14:33:31;5.47;;;1.20;;
73747;SDS011;62056;52.130;5.428;2023-04-24T14:35:58;5.90;;;1.43;;
73747;SDS011;62056;52.130;5.428;2023-04-24T14:38:25;2.95;;;1.10;;
73747;SDS011;62056;52.130;5.428;2023-04-24T14:40:51;2.80;;;1.20;;
73747;SDS011;62056;52.130;5.428;2023-04-24T14:43:32;5.82;;;1.20;;
73747;SDS011;62056;52.130;5.428;2023-04-24T14:46:02;6.38;;;1.27;;
73747;SDS011;62056;52.130;5.428;2023-04-24T14:48:29;5.93;;;1.30;;
73747;SDS011;62056;52.130;5.428;2023-04-24T14:50:56;7.70;;;1.30;;
73747;SDS011;62056;52.130;5.428;2023-04-24T14:53:23;9.52;;;1.33;;
73747;SDS011;62056;52.130;5.428;2023-04-24T14:55:50;4.15;;;0.88;;
73747;SDS011;62056;52.130;5.428;2023-04-24T14:58:16;8.77;;;1.25;;
73747;SDS011;62056;52.130;5.428;2023-04-24T15:00:43;4.50;;;1.03;;
73747;SDS011;62056;52.130;5.428;2023-04-24T15:03:10;6.05;;;1.40;;
73747;SDS011;62056;52.130;5.428;2023-04-24T15:05:37;4.60;;;1.13;;
73747;SDS011;62056;52.130;5.428;2023-04-24T15:08:04;5.72;;;1.63;;
73747;SDS011;62056;52.130;5.428;2023-04-24T15:10:31;6.15;;;1.08;;